Butte Des Morts, WI (54927)

1:06 AM CDT on August 30, 2014 (GMT -0500)
Town of Algoma | Change Station
CLOSE
Current Station
Personal Weather Station
Location: Oshkosh, WI
Elevation: 791 ft
Nearby Weather Stations
Active Advisory: Special Statement

Elev 791 ft 44.04 °N, 88.61 °W | Updated 12 minutes ago

Partly Cloudy
Partly Cloudy
75.4 °F
Feels Like 76 °F
N
2.2
Wind Variable Wind from SSE

Today
High -- | Low -- °F
--% Chance of Precip.
Yesterday
High -- | Low -- °F
Precip. -- in
6:15 AM 7:34 PM
Waxing Crescent, 19% visible
Pressure 29.75 in
Visibility 5.0 miles
Clouds Few 2600 ft
Scattered Clouds 4400 ft
Mostly Cloudy 7000 ft
Heat Index 76 °F
Dew Point 68 °F
Humidity 77%
Rainfall 0.00 in
Snow Depth Not available.
UV 0 out of 12
Pollen .20 out of 12
PM2.5 Moderate
Flu Activity Not available.
METAR KOSH 300553Z 20008KT 5SM -TSRA FEW026 SCT044 BKN070 23/20 A2980 RMK AO2 RAB42 TSB51 SLP075 P0003 60003 T02280200 10261 20228 403000167 55005

More Conditions Fewer Conditions

Pressure 29.75 in
Visibility 5.0 miles
Clouds Few 2600 ft
Scattered Clouds 4400 ft
Mostly Cloudy 7000 ft
Heat Index 76 °F
Dew Point 68 °F
Humidity 77%
Rainfall 0.00 in
Snow Depth Not available.
UV 0 out of 12
Pollen .20 out of 12
PM2.5 Moderate
Flu Activity Not available.
METAR KOSH 300553Z 20008KT 5SM -TSRA FEW026 SCT044 BKN070 23/20 A2980 RMK AO2 RAB42 TSB51 SLP075 P0003 60003 T02280200 10261 20228 403000167 55005

More Conditions Fewer Conditions

10-Day Weather Forecast

Almanac

Astronomy

Aug. 30, 2014 Rise Set
Actual Time 6:15 AM CDT 7:34 PM CDT
Civil Twilight 5:45 AM CDT 8:03 PM CDT
Nautical Twilight 5:09 AM CDT 8:39 PM CDT
Astronomical Twilight 4:31 AM CDT 9:17 PM CDT
Moon 11:14 AM CDT 9:56 PM CDT
Length of Visible Light 14h 18m
Length of Day
13h 18m
Tomorrow will be 2m 54s shorter.
Waxing Crescent, 19% of the Moon is Illuminated
Today
Waxing Crescent
Sep 2
First Quarter
Sep 8
Full
Sep 15
Last Quarter
Sep 24
New

Today's Extremes

State Highs State Lows

Community

WunderPhotos

Upload Photos

1,748,465 photos uploaded!

Nearby

Air Quality

  Air Quality AQ Index Pollutant
Yesterday Good
OZONE
Yesterday Good
PM10
Current Moderate
PM2.5
Friday Good
PM2.5
Friday Good
OZONE
Saturday Good
PM2.5
Saturday Good
OZONE
Sunday Moderate
PM2.5
Sunday Moderate
OZONE
Monday Good
PM2.5
Monday Good
OZONE
Tuesday Good
PM2.5
Tuesday Good
OZONE

Snow Depth

Station Depth Elevation
No new snow has been reported.

Earthquake Activity

City Distance Mag. Time & Date
No recent earthquake activity has been reported nearby.
Minimum magnitude displayed is 2.5.

Coastal Water Temperatures

Place Temperature
No Stations Reporting

Nearby Weather Stations